9A5

Barwick Lafayette Airport

Lafayette, Georgia, USA
METAR K9A5 171435Z AUTO 19004KT 7SM BKN009 BKN014 OVC026 25/23 A3017 RMK AO2 T02450232
Observed Flight Rules
Aug-17 @ 14:35 UTC (20 minutes ago) Instrument Flight Rules
Wind Visibility Clouds
190° at 4 knots 7 miles
  • Broken at 900' AGL
  • Broken at 1,400' AGL
  • Overcast at 2,600' AGL
Temperatures Readings
Current 25°C / 77°F
Dewpoint 23°C / 73°F
Humidity 89%
Altimeter 30.17" Hg
Pressure 1022 hPa
Elevation 237
METAR K9A5 171435Z AUTO 19004KT 7SM BKN009 BKN014 OVC026 25/23 A3017 RMK AO2 T02450232
Observed Flight Rules
Aug-17 @ 14:35 UTC
(20 minutes ago)
IFR
Wind Visibility
190° at 4 knots 7 miles
Clouds
  • Broken at 900' AGL
  • Broken at 1,400' AGL
  • Overcast at 2,600' AGL
Temperature Dewpoint
25°C / 77°F 23°C / 73°F
Humidity Altimeter Pressure
89% 30.17" Hg 1022 hPa